• Join FlightAware (Why Join?)
  • Login
  • US Flag 
02:33PM EDT


 

Airport Tracker/Info


-or-


 

Live Flight TrackerFlight Track Log ✈ UAL3740 ✈ 21-Apr-2013 ✈ KIAD - KPVD

Flight Track Log - Related Links

Times and Time Zones

All times are in EDT time to prevent confusion due to time zone crossing. See the UAL3740 flight status page for this flight to view local times or setup timezone preferences in your user account.

Time Position Orientation Groundspeed Altitude Reporting Facility
EDT Latitude Longitude Course Direction KTS MPH feet Rate Location/Type
08:33AM 38.9667 -77.4333 345° North 160 184 1,800  Level Potomac TRACON
08:34AM 39.0167 -77.4500 345° North 218 251 4,300 2,580 Climbing Potomac TRACON
08:35AM 39.0833 -77.4500 360° North 256 295 7,000 2,700 Climbing Potomac TRACON
08:36AM 39.1500 -77.4000 30° Northeast 287 330 9,800 1,620 Climbing Potomac TRACON
08:37AM 39.1500 -77.2833 90° East 353 406 10,300 1,620 Climbing Potomac TRACON
08:39AM 39.0864 -77.0036 106° East 372 428 15,200 2,160 Climbing Washington Center
08:40AM 39.0983 -76.8647 84° East 372 428 17,400 1,740 Climbing Washington Center
08:41AM 39.1103 -76.7231 84° East 384 442 18,700 1,560 Climbing Washington Center
08:42AM 39.1219 -76.5761 84° East 399 459 20,600 1,980 Climbing Washington Center
08:43AM 39.1336 -76.4239 84° East 412 474 22,700 1,200 Climbing Washington Center
08:44AM 39.1450 -76.2661 85° East 424 488 23,000 600 Climbing Washington Center
08:45AM 39.2081 -76.1247 60° Northeast 429 494 24,000 1,080 Climbing Washington Center
08:46AM 39.2900 -75.9939 51° Northeast 442 509 25,200 1,200 Climbing Washington Center
08:47AM 39.3758 -75.8600 50° Northeast 468 539 26,500 1,200 Climbing Washington Center
08:48AM 39.4592 -75.7206 52° Northeast 479 551 27,700 1,140 Climbing Washington Center
08:49AM 39.5469 -75.5808 51° Northeast 486 559 28,800 1,140 Climbing Washington Center
08:52AM 39.7622 -75.2322 51° Northeast 515 593 31,700 1,200 Climbing New York Center
08:53AM 39.8469 -75.0861 53° Northeast 509 586 32,900 600 Climbing New York Center
08:54AM 39.9356 -74.9400 52° Northeast 516 594 33,000  Climbing New York Center
08:55AM 40.0156 -74.8011 53° Northeast 521 600 33,000  Level New York Center
08:56AM 40.0908 -74.6103 63° Northeast 514 592 33,000 -720 Level New York Center
08:57AM 40.1964 -74.3228 64° Northeast 547 629 31,200 -1,200 Descending Boston Center
08:58AM 40.2639 -74.1450 64° Northeast 547 629 30,000 -1,080 Descending Boston Center
08:59AM 40.3311 -73.9700 63° Northeast 542 624 28,900 -1,140 Descending Boston Center
09:00AM 40.4067 -73.7592 65° Northeast 537 618 27,500 -960 Descending Boston Center
09:01AM 40.4669 -73.5831 66° East 531 611 27,000 -300 Descending Boston Center
09:02AM 40.5289 -73.4119 64° Northeast 520 598 27,000  Level Boston Center
09:03AM 40.5928 -73.2353 64° Northeast 520 598 27,000 -780 Level Boston Center
09:04AM 40.6544 -73.0583 65° Northeast 520 598 25,500 -1,800 Descending Boston Center
09:05AM 40.7178 -72.8864 64° Northeast 520 598 23,500 -2,040 Descending Boston Center
09:06AM 40.7786 -72.7197 64° Northeast 507 583 21,500 -2,160 Descending Boston Center
09:07AM 40.8331 -72.5636 65° Northeast 487 560 19,200 -1,920 Descending Boston Center
09:08AM 40.8811 -72.4181 66° East 479 551 17,700 -1,920 Descending Boston Center
09:09AM 40.9331 -72.2697 65° Northeast 456 525 15,400 -2,580 Descending Boston Center
09:10AM 40.9642 -72.1817 65° Northeast 462 532 13,800 -2,400 Descending Boston Center
09:10AM 40.9850 -72.1183 66° East 445 512 13,000 -2,280 Descending Boston Center
09:11AM 41.0158 -72.0358 64° Northeast 444 511 11,500 -1,920 Descending Boston Center
09:11AM 41.0322 -71.9722 71° East 440 506 11,100 -540 Descending Boston Center
09:12AM 41.0675 -71.8978 58° Northeast 411 473 11,000  Descending Boston Center
09:12AM 41.0983 -71.8533 47° Northeast 412 474 11,100 -240 Climbing Boston Center
09:13AM 41.1419 -71.7842 50° Northeast 370 426 10,800 -600 Descending Boston Center
09:13AM 41.1644 -71.7425 54° Northeast 368 423 10,500 -1,200 Descending Boston Center
09:14AM 41.1956 -71.6953 49° Northeast 316 364 9,600 -1,740 Descending Boston Center
09:15AM 41.2661 -71.6614 20° North 275 316 7,800 -1,740 Descending Boston Center
09:16AM 41.3408 -71.6411 12° North 267 307 6,100 -1,380 Descending Boston Center
09:17AM 41.4075 -71.6208 13° North 256 295 5,000 -600 Descending Boston Center
09:18AM 41.4803 -71.5978 13° North 251 289 5,000 -480 Level Boston Center
09:19AM 41.5489 -71.5775 12° North 245 282 4,100 -1,020 Descending Boston Center
09:20AM 41.5944 -71.5381 33° Northeast 195 224 3,000 -1,140 Descending Boston Center
09:21AM 41.6358 -71.5014 34° Northeast 180 207 1,900 -900 Descending Boston Center
09:22AM 41.6689 -71.4758 30° Northeast 139 160 1,200 -780 Descending Boston Center
09:23AM 41.7061 -71.4419 34° Northeast 135 155 300 -840 Descending Boston Center